sensor_id;sensor_type;location;lat;lon;timestamp;P1;durP1;ratioP1;P2;durP2;ratioP2
41568;SDS011;27283;52.504;13.358;2023-03-20T00:01:18;7.10;;;4.47;;
41568;SDS011;27283;52.504;13.358;2023-03-20T00:03:56;9.43;;;4.80;;
41568;SDS011;27283;52.504;13.358;2023-03-20T00:06:28;9.48;;;4.60;;
41568;SDS011;27283;52.504;13.358;2023-03-20T00:09:01;9.30;;;5.45;;
41568;SDS011;27283;52.504;13.358;2023-03-20T00:11:35;10.40;;;6.47;;
41568;SDS011;27283;52.504;13.358;2023-03-20T00:14:19;12.05;;;6.07;;
41568;SDS011;27283;52.504;13.358;2023-03-20T00:16:53;9.90;;;5.30;;
41568;SDS011;27283;52.504;13.358;2023-03-20T00:19:27;11.95;;;5.82;;
41568;SDS011;27283;52.504;13.358;2023-03-20T00:22:00;8.90;;;5.22;;
41568;SDS011;27283;52.504;13.358;2023-03-20T00:24:33;8.75;;;5.18;;
41568;SDS011;27283;52.504;13.358;2023-03-20T00:27:05;9.52;;;5.38;;
41568;SDS011;27283;52.504;13.358;2023-03-20T00:29:44;8.93;;;5.40;;
41568;SDS011;27283;52.504;13.358;2023-03-20T00:32:16;9.35;;;5.28;;
41568;SDS011;27283;52.504;13.358;2023-03-20T00:34:49;9.98;;;4.90;;
41568;SDS011;27283;52.504;13.358;2023-03-20T00:37:21;9.60;;;5.50;;
41568;SDS011;27283;52.504;13.358;2023-03-20T00:39:56;9.57;;;5.35;;
41568;SDS011;27283;52.504;13.358;2023-03-20T00:42:28;13.52;;;6.18;;
41568;SDS011;27283;52.504;13.358;2023-03-20T00:45:03;9.25;;;5.63;;
41568;SDS011;27283;52.504;13.358;2023-03-20T00:47:36;10.25;;;6.00;;
41568;SDS011;27283;52.504;13.358;2023-03-20T00:50:13;11.15;;;5.53;;
41568;SDS011;27283;52.504;13.358;2023-03-20T00:52:48;9.57;;;5.68;;
41568;SDS011;27283;52.504;13.358;2023-03-20T00:55:23;13.90;;;6.13;;
41568;SDS011;27283;52.504;13.358;2023-03-20T00:57:59;12.20;;;6.40;;
41568;SDS011;27283;52.504;13.358;2023-03-20T01:00:37;14.48;;;6.25;;
41568;SDS011;27283;52.504;13.358;2023-03-20T01:03:13;15.20;;;6.72;;
41568;SDS011;27283;52.504;13.358;2023-03-20T01:05:48;16.30;;;6.30;;
41568;SDS011;27283;52.504;13.358;2023-03-20T01:08:22;12.50;;;7.05;;
41568;SDS011;27283;52.504;13.358;2023-03-20T01:10:56;11.63;;;6.43;;
41568;SDS011;27283;52.504;13.358;2023-03-20T01:13:29;11.02;;;6.18;;
41568;SDS011;27283;52.504;13.358;2023-03-20T01:16:11;13.23;;;6.97;;
41568;SDS011;27283;52.504;13.358;2023-03-20T01:18:50;12.55;;;6.35;;
41568;SDS011;27283;52.504;13.358;2023-03-20T01:21:27;13.10;;;6.43;;
41568;SDS011;27283;52.504;13.358;2023-03-20T01:23:59;11.32;;;6.25;;
41568;SDS011;27283;52.504;13.358;2023-03-20T01:26:33;12.95;;;6.68;;
41568;SDS011;27283;52.504;13.358;2023-03-20T01:29:11;15.40;;;7.30;;
41568;SDS011;27283;52.504;13.358;2023-03-20T01:31:52;14.70;;;7.07;;
41568;SDS011;27283;52.504;13.358;2023-03-20T01:34:25;15.32;;;6.57;;
41568;SDS011;27283;52.504;13.358;2023-03-20T01:36:57;11.85;;;6.85;;
41568;SDS011;27283;52.504;13.358;2023-03-20T01:39:30;11.65;;;6.25;;
41568;SDS011;27283;52.504;13.358;2023-03-20T01:42:06;10.50;;;6.50;;
41568;SDS011;27283;52.504;13.358;2023-03-20T01:44:38;13.98;;;6.50;;
41568;SDS011;27283;52.504;13.358;2023-03-20T01:47:14;13.27;;;6.60;;
41568;SDS011;27283;52.504;13.358;2023-03-20T01:52:56;11.05;;;6.10;;
41568;SDS011;27283;52.504;13.358;2023-03-20T01:55:32;11.82;;;6.95;;
41568;SDS011;27283;52.504;13.358;2023-03-20T01:58:06;11.18;;;6.60;;
41568;SDS011;27283;52.504;13.358;2023-03-20T02:00:43;13.55;;;6.57;;
41568;SDS011;27283;52.504;13.358;2023-03-20T02:03:20;15.43;;;6.35;;
41568;SDS011;27283;52.504;13.358;2023-03-20T02:05:54;13.30;;;6.63;;
41568;SDS011;27283;52.504;13.358;2023-03-20T02:08:28;16.15;;;6.80;;
41568;SDS011;27283;52.504;13.358;2023-03-20T02:11:03;10.65;;;6.63;;
41568;SDS011;27283;52.504;13.358;2023-03-20T02:13:37;13.43;;;6.72;;
41568;SDS011;27283;52.504;13.358;2023-03-20T02:16:11;12.90;;;6.70;;
41568;SDS011;27283;52.504;13.358;2023-03-20T02:18:48;15.70;;;7.63;;
41568;SDS011;27283;52.504;13.358;2023-03-20T02:21:37;11.93;;;7.20;;
41568;SDS011;27283;52.504;13.358;2023-03-20T02:24:53;12.73;;;6.97;;
41568;SDS011;27283;52.504;13.358;2023-03-20T02:27:53;11.70;;;7.50;;
41568;SDS011;27283;52.504;13.358;2023-03-20T02:30:54;13.70;;;6.95;;
41568;SDS011;27283;52.504;13.358;2023-03-20T02:36:58;11.80;;;6.90;;
41568;SDS011;27283;52.504;13.358;2023-03-20T02:40:04;14.25;;;7.03;;
41568;SDS011;27283;52.504;13.358;2023-03-20T02:42:49;12.70;;;7.30;;
41568;SDS011;27283;52.504;13.358;2023-03-20T02:45:28;12.82;;;7.20;;
41568;SDS011;27283;52.504;13.358;2023-03-20T02:48:09;13.95;;;7.35;;
41568;SDS011;27283;52.504;13.358;2023-03-20T02:50:46;12.10;;;7.25;;
41568;SDS011;27283;52.504;13.358;2023-03-20T02:53:30;14.77;;;7.90;;
41568;SDS011;27283;52.504;13.358;2023-03-20T02:56:11;13.48;;;7.70;;
41568;SDS011;27283;52.504;13.358;2023-03-20T02:58:50;14.25;;;7.70;;
41568;SDS011;27283;52.504;13.358;2023-03-20T03:01:30;14.52;;;7.40;;
41568;SDS011;27283;52.504;13.358;2023-03-20T03:04:08;11.20;;;7.38;;
41568;SDS011;27283;52.504;13.358;2023-03-20T03:06:43;13.88;;;7.88;;
41568;SDS011;27283;52.504;13.358;2023-03-20T03:09:27;15.77;;;7.88;;
41568;SDS011;27283;52.504;13.358;2023-03-20T03:12:05;14.27;;;7.95;;
41568;SDS011;27283;52.504;13.358;2023-03-20T03:14:43;11.35;;;7.32;;
41568;SDS011;27283;52.504;13.358;2023-03-20T03:17:19;15.27;;;7.90;;
41568;SDS011;27283;52.504;13.358;2023-03-20T03:19:57;14.93;;;7.50;;
41568;SDS011;27283;52.504;13.358;2023-03-20T03:22:33;11.10;;;7.60;;
41568;SDS011;27283;52.504;13.358;2023-03-20T03:25:11;15.05;;;8.25;;
41568;SDS011;27283;52.504;13.358;2023-03-20T03:27:44;14.05;;;8.52;;
41568;SDS011;27283;52.504;13.358;2023-03-20T03:30:20;14.60;;;8.40;;
41568;SDS011;27283;52.504;13.358;2023-03-20T03:33:02;14.63;;;8.10;;
41568;SDS011;27283;52.504;13.358;2023-03-20T03:35:44;14.32;;;8.30;;
41568;SDS011;27283;52.504;13.358;2023-03-20T03:38:23;18.30;;;8.88;;
41568;SDS011;27283;52.504;13.358;2023-03-20T03:41:09;14.80;;;8.30;;
41568;SDS011;27283;52.504;13.358;2023-03-20T03:43:52;18.23;;;10.25;;
41568;SDS011;27283;52.504;13.358;2023-03-20T03:46:35;17.92;;;10.20;;
41568;SDS011;27283;52.504;13.358;2023-03-20T03:49:13;23.80;;;11.27;;
41568;SDS011;27283;52.504;13.358;2023-03-20T03:51:55;18.10;;;10.07;;
41568;SDS011;27283;52.504;13.358;2023-03-20T03:54:32;19.92;;;10.80;;
41568;SDS011;27283;52.504;13.358;2023-03-20T03:57:12;17.85;;;11.02;;
41568;SDS011;27283;52.504;13.358;2023-03-20T03:59:48;18.67;;;10.27;;
41568;SDS011;27283;52.504;13.358;2023-03-20T04:02:23;18.38;;;10.30;;
41568;SDS011;27283;52.504;13.358;2023-03-20T04:04:56;19.38;;;10.25;;
41568;SDS011;27283;52.504;13.358;2023-03-20T04:07:32;16.77;;;9.68;;
41568;SDS011;27283;52.504;13.358;2023-03-20T04:10:06;17.08;;;9.50;;
41568;SDS011;27283;52.504;13.358;2023-03-20T04:12:43;17.80;;;10.10;;
41568;SDS011;27283;52.504;13.358;2023-03-20T04:15:16;18.85;;;11.55;;
41568;SDS011;27283;52.504;13.358;2023-03-20T04:17:49;19.02;;;12.13;;
41568;SDS011;27283;52.504;13.358;2023-03-20T04:20:21;20.42;;;11.63;;
41568;SDS011;27283;52.504;13.358;2023-03-20T04:22:54;22.08;;;11.90;;
41568;SDS011;27283;52.504;13.358;2023-03-20T04:25:26;18.25;;;11.80;;
41568;SDS011;27283;52.504;13.358;2023-03-20T04:28:02;20.10;;;11.68;;
41568;SDS011;27283;52.504;13.358;2023-03-20T04:30:35;22.80;;;12.27;;
41568;SDS011;27283;52.504;13.358;2023-03-20T04:33:07;20.42;;;12.40;;
41568;SDS011;27283;52.504;13.358;2023-03-20T04:35:39;22.98;;;12.52;;
41568;SDS011;27283;52.504;13.358;2023-03-20T04:38:30;22.42;;;12.43;;
41568;SDS011;27283;52.504;13.358;2023-03-20T04:41:03;22.92;;;12.82;;
41568;SDS011;27283;52.504;13.358;2023-03-20T04:43:39;20.33;;;11.85;;
41568;SDS011;27283;52.504;13.358;2023-03-20T04:46:11;21.25;;;12.18;;
41568;SDS011;27283;52.504;13.358;2023-03-20T04:48:44;20.65;;;12.02;;
41568;SDS011;27283;52.504;13.358;2023-03-20T04:52:07;21.50;;;12.35;;
41568;SDS011;27283;52.504;13.358;2023-03-20T04:54:40;22.20;;;11.95;;
41568;SDS011;27283;52.504;13.358;2023-03-20T04:57:12;18.63;;;11.57;;
41568;SDS011;27283;52.504;13.358;2023-03-20T04:59:47;20.05;;;11.95;;
41568;SDS011;27283;52.504;13.358;2023-03-20T05:02:20;21.33;;;12.18;;
41568;SDS011;27283;52.504;13.358;2023-03-20T05:04:52;25.60;;;14.30;;
41568;SDS011;27283;52.504;13.358;2023-03-20T05:07:32;24.30;;;13.90;;
41568;SDS011;27283;52.504;13.358;2023-03-20T05:10:05;24.65;;;13.68;;
41568;SDS011;27283;52.504;13.358;2023-03-20T05:12:37;23.65;;;14.55;;
41568;SDS011;27283;52.504;13.358;2023-03-20T05:15:13;25.40;;;13.40;;
41568;SDS011;27283;52.504;13.358;2023-03-20T05:17:45;25.52;;;15.38;;
41568;SDS011;27283;52.504;13.358;2023-03-20T05:20:19;27.23;;;16.55;;
41568;SDS011;27283;52.504;13.358;2023-03-20T05:22:51;30.38;;;16.58;;
41568;SDS011;27283;52.504;13.358;2023-03-20T05:25:23;34.45;;;17.30;;
41568;SDS011;27283;52.504;13.358;2023-03-20T05:27:55;32.17;;;17.58;;
41568;SDS011;27283;52.504;13.358;2023-03-20T05:30:30;32.08;;;18.00;;
41568;SDS011;27283;52.504;13.358;2023-03-20T05:33:03;32.20;;;16.58;;
41568;SDS011;27283;52.504;13.358;2023-03-20T05:39:02;32.38;;;18.17;;
41568;SDS011;27283;52.504;13.358;2023-03-20T05:41:34;35.85;;;19.45;;
41568;SDS011;27283;52.504;13.358;2023-03-20T05:44:38;40.22;;;19.23;;
41568;SDS011;27283;52.504;13.358;2023-03-20T05:47:26;37.72;;;20.23;;
41568;SDS011;27283;52.504;13.358;2023-03-20T05:49:57;36.40;;;19.30;;
41568;SDS011;27283;52.504;13.358;2023-03-20T05:52:30;39.53;;;20.38;;
41568;SDS011;27283;52.504;13.358;2023-03-20T05:55:02;35.70;;;19.45;;
41568;SDS011;27283;52.504;13.358;2023-03-20T05:57:34;36.67;;;20.17;;
41568;SDS011;27283;52.504;13.358;2023-03-20T06:00:07;35.25;;;19.90;;
41568;SDS011;27283;52.504;13.358;2023-03-20T06:02:43;35.70;;;20.02;;
41568;SDS011;27283;52.504;13.358;2023-03-20T06:05:15;39.05;;;21.17;;
41568;SDS011;27283;52.504;13.358;2023-03-20T06:07:47;38.97;;;21.27;;
41568;SDS011;27283;52.504;13.358;2023-03-20T06:10:19;42.20;;;21.83;;
41568;SDS011;27283;52.504;13.358;2023-03-20T06:12:51;48.00;;;24.38;;
41568;SDS011;27283;52.504;13.358;2023-03-20T06:15:24;47.85;;;26.55;;
41568;SDS011;27283;52.504;13.358;2023-03-20T06:17:59;55.95;;;26.10;;
41568;SDS011;27283;52.504;13.358;2023-03-20T06:20:31;57.67;;;27.38;;
41568;SDS011;27283;52.504;13.358;2023-03-20T06:23:03;54.08;;;28.00;;
41568;SDS011;27283;52.504;13.358;2023-03-20T06:25:35;56.88;;;28.25;;
41568;SDS011;27283;52.504;13.358;2023-03-20T06:28:07;65.85;;;33.70;;
41568;SDS011;27283;52.504;13.358;2023-03-20T06:30:39;65.25;;;31.88;;
41568;SDS011;27283;52.504;13.358;2023-03-20T06:33:14;58.40;;;29.45;;
41568;SDS011;27283;52.504;13.358;2023-03-20T06:35:46;74.57;;;34.47;;
41568;SDS011;27283;52.504;13.358;2023-03-20T06:38:18;61.45;;;31.02;;
41568;SDS011;27283;52.504;13.358;2023-03-20T06:40:50;61.53;;;31.23;;
41568;SDS011;27283;52.504;13.358;2023-03-20T06:43:23;72.97;;;34.25;;
41568;SDS011;27283;52.504;13.358;2023-03-20T06:45:55;70.50;;;32.15;;
41568;SDS011;27283;52.504;13.358;2023-03-20T06:48:30;67.30;;;30.73;;
41568;SDS011;27283;52.504;13.358;2023-03-20T06:51:02;72.13;;;32.15;;
41568;SDS011;27283;52.504;13.358;2023-03-20T06:53:35;75.55;;;32.75;;
41568;SDS011;27283;52.504;13.358;2023-03-20T06:56:08;75.15;;;32.92;;
41568;SDS011;27283;52.504;13.358;2023-03-20T06:58:41;76.00;;;32.90;;
41568;SDS011;27283;52.504;13.358;2023-03-20T07:01:14;76.80;;;33.92;;
41568;SDS011;27283;52.504;13.358;2023-03-20T07:03:50;76.97;;;33.17;;
41568;SDS011;27283;52.504;13.358;2023-03-20T07:06:22;79.55;;;34.20;;
41568;SDS011;27283;52.504;13.358;2023-03-20T07:08:55;87.68;;;36.70;;
41568;SDS011;27283;52.504;13.358;2023-03-20T07:11:27;88.22;;;37.00;;
41568;SDS011;27283;52.504;13.358;2023-03-20T07:13:59;106.18;;;41.45;;
41568;SDS011;27283;52.504;13.358;2023-03-20T07:16:31;123.03;;;46.13;;
41568;SDS011;27283;52.504;13.358;2023-03-20T07:19:07;109.07;;;42.60;;
41568;SDS011;27283;52.504;13.358;2023-03-20T07:21:40;103.18;;;40.50;;
41568;SDS011;27283;52.504;13.358;2023-03-20T07:24:14;108.22;;;41.92;;
41568;SDS011;27283;52.504;13.358;2023-03-20T07:26:46;106.93;;;41.30;;
41568;SDS011;27283;52.504;13.358;2023-03-20T07:29:19;106.45;;;38.75;;
41568;SDS011;27283;52.504;13.358;2023-03-20T07:31:51;107.75;;;40.15;;
41568;SDS011;27283;52.504;13.358;2023-03-20T07:34:27;100.43;;;38.78;;
41568;SDS011;27283;52.504;13.358;2023-03-20T07:36:59;97.22;;;35.75;;
41568;SDS011;27283;52.504;13.358;2023-03-20T07:39:32;95.65;;;35.33;;
41568;SDS011;27283;52.504;13.358;2023-03-20T07:42:06;104.93;;;37.72;;
41568;SDS011;27283;52.504;13.358;2023-03-20T07:44:38;95.45;;;35.05;;
41568;SDS011;27283;52.504;13.358;2023-03-20T07:47:11;98.05;;;34.70;;
41568;SDS011;27283;52.504;13.358;2023-03-20T07:49:46;88.63;;;32.88;;
41568;SDS011;27283;52.504;13.358;2023-03-20T07:52:25;83.35;;;30.98;;
41568;SDS011;27283;52.504;13.358;2023-03-20T07:55:06;86.97;;;31.17;;
41568;SDS011;27283;52.504;13.358;2023-03-20T07:57:39;82.70;;;29.17;;
41568;SDS011;27283;52.504;13.358;2023-03-20T08:00:12;71.75;;;28.42;;
41568;SDS011;27283;52.504;13.358;2023-03-20T08:02:46;73.43;;;28.73;;
41568;SDS011;27283;52.504;13.358;2023-03-20T08:05:21;78.68;;;28.70;;
41568;SDS011;27283;52.504;13.358;2023-03-20T08:07:53;78.97;;;29.10;;
41568;SDS011;27283;52.504;13.358;2023-03-20T08:10:26;73.35;;;29.10;;
41568;SDS011;27283;52.504;13.358;2023-03-20T08:12:59;74.82;;;28.45;;
41568;SDS011;27283;52.504;13.358;2023-03-20T08:15:31;86.30;;;32.10;;
41568;SDS011;27283;52.504;13.358;2023-03-20T08:18:03;79.68;;;29.25;;
41568;SDS011;27283;52.504;13.358;2023-03-20T08:20:50;77.57;;;30.33;;
41568;SDS011;27283;52.504;13.358;2023-03-20T08:23:22;79.55;;;30.88;;
41568;SDS011;27283;52.504;13.358;2023-03-20T08:25:55;74.07;;;29.58;;
41568;SDS011;27283;52.504;13.358;2023-03-20T08:28:27;74.07;;;27.98;;
41568;SDS011;27283;52.504;13.358;2023-03-20T08:31:14;74.18;;;27.42;;
41568;SDS011;27283;52.504;13.358;2023-03-20T08:33:46;65.22;;;26.77;;
41568;SDS011;27283;52.504;13.358;2023-03-20T08:36:22;65.00;;;25.15;;
41568;SDS011;27283;52.504;13.358;2023-03-20T08:38:54;66.85;;;25.38;;
41568;SDS011;27283;52.504;13.358;2023-03-20T08:41:26;61.63;;;24.73;;
41568;SDS011;27283;52.504;13.358;2023-03-20T08:43:58;61.40;;;24.90;;
41568;SDS011;27283;52.504;13.358;2023-03-20T08:46:30;58.55;;;23.13;;
41568;SDS011;27283;52.504;13.358;2023-03-20T08:49:03;53.10;;;22.73;;
41568;SDS011;27283;52.504;13.358;2023-03-20T08:51:38;53.22;;;22.08;;
41568;SDS011;27283;52.504;13.358;2023-03-20T08:54:11;58.92;;;22.60;;
41568;SDS011;27283;52.504;13.358;2023-03-20T08:56:46;50.17;;;21.15;;
41568;SDS011;27283;52.504;13.358;2023-03-20T08:59:18;49.63;;;21.38;;
41568;SDS011;27283;52.504;13.358;2023-03-20T09:01:51;50.65;;;20.98;;
41568;SDS011;27283;52.504;13.358;2023-03-20T09:04:24;51.08;;;20.92;;
41568;SDS011;27283;52.504;13.358;2023-03-20T09:07:00;47.28;;;18.70;;
41568;SDS011;27283;52.504;13.358;2023-03-20T09:09:32;47.83;;;19.58;;
41568;SDS011;27283;52.504;13.358;2023-03-20T09:12:05;45.15;;;19.50;;
41568;SDS011;27283;52.504;13.358;2023-03-20T09:14:38;45.80;;;20.52;;
41568;SDS011;27283;52.504;13.358;2023-03-20T09:17:10;52.47;;;19.90;;
41568;SDS011;27283;52.504;13.358;2023-03-20T09:19:43;45.83;;;19.23;;
41568;SDS011;27283;52.504;13.358;2023-03-20T09:22:18;45.63;;;19.15;;
41568;SDS011;27283;52.504;13.358;2023-03-20T09:24:51;46.42;;;18.83;;
41568;SDS011;27283;52.504;13.358;2023-03-20T09:27:23;48.10;;;18.08;;
41568;SDS011;27283;52.504;13.358;2023-03-20T09:29:56;41.13;;;17.40;;
41568;SDS011;27283;52.504;13.358;2023-03-20T09:32:28;39.38;;;16.83;;
41568;SDS011;27283;52.504;13.358;2023-03-20T09:35:02;41.03;;;17.20;;
41568;SDS011;27283;52.504;13.358;2023-03-20T09:37:39;38.10;;;16.80;;
41568;SDS011;27283;52.504;13.358;2023-03-20T09:40:18;43.78;;;17.38;;
41568;SDS011;27283;52.504;13.358;2023-03-20T09:42:57;38.13;;;16.65;;
41568;SDS011;27283;52.504;13.358;2023-03-20T09:45:40;38.22;;;16.40;;
41568;SDS011;27283;52.504;13.358;2023-03-20T09:48:22;37.83;;;16.25;;
41568;SDS011;27283;52.504;13.358;2023-03-20T09:51:00;50.70;;;16.73;;
41568;SDS011;27283;52.504;13.358;2023-03-20T09:53:43;42.00;;;16.23;;
41568;SDS011;27283;52.504;13.358;2023-03-20T09:56:20;45.58;;;17.30;;
41568;SDS011;27283;52.504;13.358;2023-03-20T09:58:57;40.25;;;16.17;;
41568;SDS011;27283;52.504;13.358;2023-03-20T10:01:32;46.22;;;16.98;;
41568;SDS011;27283;52.504;13.358;2023-03-20T10:04:12;43.67;;;13.95;;
41568;SDS011;27283;52.504;13.358;2023-03-20T10:06:45;36.10;;;13.88;;
41568;SDS011;27283;52.504;13.358;2023-03-20T10:09:21;27.48;;;11.48;;
41568;SDS011;27283;52.504;13.358;2023-03-20T10:12:12;27.83;;;12.65;;
41568;SDS011;27283;52.504;13.358;2023-03-20T10:14:57;27.00;;;11.52;;
41568;SDS011;27283;52.504;13.358;2023-03-20T10:17:38;24.45;;;11.50;;
41568;SDS011;27283;52.504;13.358;2023-03-20T10:20:23;29.98;;;11.88;;
41568;SDS011;27283;52.504;13.358;2023-03-20T10:23:02;24.73;;;10.93;;
41568;SDS011;27283;52.504;13.358;2023-03-20T10:25:42;29.38;;;11.77;;
41568;SDS011;27283;52.504;13.358;2023-03-20T10:28:21;25.20;;;11.13;;
41568;SDS011;27283;52.504;13.358;2023-03-20T10:31:05;27.65;;;11.73;;
41568;SDS011;27283;52.504;13.358;2023-03-20T10:33:53;23.88;;;11.30;;
41568;SDS011;27283;52.504;13.358;2023-03-20T10:36:38;22.00;;;9.95;;
41568;SDS011;27283;52.504;13.358;2023-03-20T10:39:25;22.63;;;10.23;;
41568;SDS011;27283;52.504;13.358;2023-03-20T10:42:12;22.38;;;9.85;;
41568;SDS011;27283;52.504;13.358;2023-03-20T10:44:53;28.02;;;10.80;;
41568;SDS011;27283;52.504;13.358;2023-03-20T10:47:29;21.88;;;10.02;;
41568;SDS011;27283;52.504;13.358;2023-03-20T10:50:09;20.95;;;9.55;;
41568;SDS011;27283;52.504;13.358;2023-03-20T10:52:48;23.77;;;10.48;;
41568;SDS011;27283;52.504;13.358;2023-03-20T10:55:23;24.17;;;10.13;;
41568;SDS011;27283;52.504;13.358;2023-03-20T10:58:13;21.25;;;9.35;;
41568;SDS011;27283;52.504;13.358;2023-03-20T11:00:51;25.40;;;10.20;;
41568;SDS011;27283;52.504;13.358;2023-03-20T11:03:53;25.35;;;10.15;;
41568;SDS011;27283;52.504;13.358;2023-03-20T11:06:30;25.20;;;9.43;;
41568;SDS011;27283;52.504;13.358;2023-03-20T11:09:09;27.40;;;10.20;;
41568;SDS011;27283;52.504;13.358;2023-03-20T11:11:47;27.52;;;10.90;;
41568;SDS011;27283;52.504;13.358;2023-03-20T11:14:26;26.52;;;10.57;;
41568;SDS011;27283;52.504;13.358;2023-03-20T11:17:05;33.78;;;10.50;;
41568;SDS011;27283;52.504;13.358;2023-03-20T11:19:38;25.73;;;9.25;;
41568;SDS011;27283;52.504;13.358;2023-03-20T11:22:21;24.45;;;10.23;;
41568;SDS011;27283;52.504;13.358;2023-03-20T11:24:56;26.70;;;10.20;;
41568;SDS011;27283;52.504;13.358;2023-03-20T11:27:32;22.20;;;9.05;;
41568;SDS011;27283;52.504;13.358;2023-03-20T11:30:10;25.20;;;8.80;;
41568;SDS011;27283;52.504;13.358;2023-03-20T11:32:46;24.02;;;10.60;;
41568;SDS011;27283;52.504;13.358;2023-03-20T11:35:21;24.58;;;10.35;;
41568;SDS011;27283;52.504;13.358;2023-03-20T11:38:07;26.00;;;10.30;;
41568;SDS011;27283;52.504;13.358;2023-03-20T11:40:44;21.77;;;9.65;;
41568;SDS011;27283;52.504;13.358;2023-03-20T11:43:20;20.13;;;9.45;;
41568;SDS011;27283;52.504;13.358;2023-03-20T11:45:58;22.05;;;9.23;;
41568;SDS011;27283;52.504;13.358;2023-03-20T11:48:35;22.05;;;9.45;;
41568;SDS011;27283;52.504;13.358;2023-03-20T11:51:10;24.42;;;10.07;;
41568;SDS011;27283;52.504;13.358;2023-03-20T11:53:55;22.65;;;10.45;;
41568;SDS011;27283;52.504;13.358;2023-03-20T11:56:32;21.05;;;10.07;;
41568;SDS011;27283;52.504;13.358;2023-03-20T11:59:09;23.63;;;9.73;;
41568;SDS011;27283;52.504;13.358;2023-03-20T12:01:49;21.35;;;9.65;;
41568;SDS011;27283;52.504;13.358;2023-03-20T12:04:27;25.30;;;10.40;;
41568;SDS011;27283;52.504;13.358;2023-03-20T12:07:02;20.08;;;9.55;;
41568;SDS011;27283;52.504;13.358;2023-03-20T12:09:41;22.13;;;10.30;;
41568;SDS011;27283;52.504;13.358;2023-03-20T12:12:23;23.77;;;10.05;;
41568;SDS011;27283;52.504;13.358;2023-03-20T12:15:07;22.15;;;10.15;;
41568;SDS011;27283;52.504;13.358;2023-03-20T12:17:52;26.25;;;9.55;;
41568;SDS011;27283;52.504;13.358;2023-03-20T12:20:31;22.85;;;10.27;;
41568;SDS011;27283;52.504;13.358;2023-03-20T12:23:11;23.40;;;10.18;;
41568;SDS011;27283;52.504;13.358;2023-03-20T12:25:50;24.25;;;10.15;;
41568;SDS011;27283;52.504;13.358;2023-03-20T12:28:29;23.98;;;10.10;;
41568;SDS011;27283;52.504;13.358;2023-03-20T12:31:14;24.63;;;10.63;;
41568;SDS011;27283;52.504;13.358;2023-03-20T12:33:57;22.20;;;10.30;;
41568;SDS011;27283;52.504;13.358;2023-03-20T12:36:34;21.38;;;9.95;;
41568;SDS011;27283;52.504;13.358;2023-03-20T12:39:10;23.65;;;10.50;;
41568;SDS011;27283;52.504;13.358;2023-03-20T12:41:50;22.73;;;10.88;;
41568;SDS011;27283;52.504;13.358;2023-03-20T12:44:37;25.50;;;11.13;;
41568;SDS011;27283;52.504;13.358;2023-03-20T12:50:29;21.95;;;10.32;;
41568;SDS011;27283;52.504;13.358;2023-03-20T12:53:12;27.75;;;10.93;;
41568;SDS011;27283;52.504;13.358;2023-03-20T12:56:21;25.33;;;11.48;;
41568;SDS011;27283;52.504;13.358;2023-03-20T12:59:02;23.10;;;10.55;;
41568;SDS011;27283;52.504;13.358;2023-03-20T13:01:47;25.17;;;11.05;;
41568;SDS011;27283;52.504;13.358;2023-03-20T13:07:29;30.25;;;12.00;;
41568;SDS011;27283;52.504;13.358;2023-03-20T13:10:18;27.92;;;11.57;;
41568;SDS011;27283;52.504;13.358;2023-03-20T13:12:57;25.83;;;11.65;;
41568;SDS011;27283;52.504;13.358;2023-03-20T13:15:48;29.00;;;11.93;;
41568;SDS011;27283;52.504;13.358;2023-03-20T13:18:38;24.95;;;11.20;;
41568;SDS011;27283;52.504;13.358;2023-03-20T13:21:23;27.17;;;12.75;;
41568;SDS011;27283;52.504;13.358;2023-03-20T13:27:06;29.52;;;12.10;;
41568;SDS011;27283;52.504;13.358;2023-03-20T13:29:54;27.30;;;12.48;;
41568;SDS011;27283;52.504;13.358;2023-03-20T13:32:37;30.65;;;12.85;;
41568;SDS011;27283;52.504;13.358;2023-03-20T13:35:22;29.95;;;12.68;;
41568;SDS011;27283;52.504;13.358;2023-03-20T13:38:06;28.98;;;13.48;;
41568;SDS011;27283;52.504;13.358;2023-03-20T13:40:49;33.83;;;14.88;;
41568;SDS011;27283;52.504;13.358;2023-03-20T13:43:32;32.83;;;14.80;;
41568;SDS011;27283;52.504;13.358;2023-03-20T13:46:11;32.95;;;14.63;;
41568;SDS011;27283;52.504;13.358;2023-03-20T13:48:49;32.50;;;13.93;;
41568;SDS011;27283;52.504;13.358;2023-03-20T13:51:26;35.05;;;14.82;;
41568;SDS011;27283;52.504;13.358;2023-03-20T13:54:06;35.05;;;14.82;;
41568;SDS011;27283;52.504;13.358;2023-03-20T13:56:52;31.40;;;14.60;;
41568;SDS011;27283;52.504;13.358;2023-03-20T14:02:33;33.20;;;13.48;;
41568;SDS011;27283;52.504;13.358;2023-03-20T14:05:22;31.10;;;14.02;;
41568;SDS011;27283;52.504;13.358;2023-03-20T14:07:56;34.05;;;14.40;;
41568;SDS011;27283;52.504;13.358;2023-03-20T14:10:33;34.10;;;15.63;;
41568;SDS011;27283;52.504;13.358;2023-03-20T14:13:16;30.40;;;13.80;;
41568;SDS011;27283;52.504;13.358;2023-03-20T14:15:53;29.85;;;14.20;;
41568;SDS011;27283;52.504;13.358;2023-03-20T14:18:28;33.83;;;14.23;;
41568;SDS011;27283;52.504;13.358;2023-03-20T14:21:03;35.47;;;14.70;;
41568;SDS011;27283;52.504;13.358;2023-03-20T14:23:44;33.45;;;14.48;;
41568;SDS011;27283;52.504;13.358;2023-03-20T14:26:21;30.98;;;14.50;;
41568;SDS011;27283;52.504;13.358;2023-03-20T14:29:01;34.33;;;15.07;;
41568;SDS011;27283;52.504;13.358;2023-03-20T14:31:53;30.88;;;14.65;;
41568;SDS011;27283;52.504;13.358;2023-03-20T14:34:46;36.88;;;14.95;;
41568;SDS011;27283;52.504;13.358;2023-03-20T14:37:27;36.40;;;15.00;;
41568;SDS011;27283;52.504;13.358;2023-03-20T14:40:12;33.95;;;15.27;;
41568;SDS011;27283;52.504;13.358;2023-03-20T14:42:49;36.17;;;15.57;;
41568;SDS011;27283;52.504;13.358;2023-03-20T14:45:39;37.28;;;15.32;;
41568;SDS011;27283;52.504;13.358;2023-03-20T14:48:16;37.70;;;15.60;;
41568;SDS011;27283;52.504;13.358;2023-03-20T14:51:07;36.55;;;14.77;;
41568;SDS011;27283;52.504;13.358;2023-03-20T14:53:55;37.08;;;15.43;;
41568;SDS011;27283;52.504;13.358;2023-03-20T14:56:50;34.67;;;15.68;;
41568;SDS011;27283;52.504;13.358;2023-03-20T14:59:23;37.25;;;15.88;;
41568;SDS011;27283;52.504;13.358;2023-03-20T15:01:59;37.78;;;15.57;;
41568;SDS011;27283;52.504;13.358;2023-03-20T15:04:35;35.17;;;16.58;;
41568;SDS011;27283;52.504;13.358;2023-03-20T15:07:12;37.80;;;16.02;;
41568;SDS011;27283;52.504;13.358;2023-03-20T15:09:47;41.42;;;15.95;;
41568;SDS011;27283;52.504;13.358;2023-03-20T15:12:23;40.03;;;16.80;;
41568;SDS011;27283;52.504;13.358;2023-03-20T15:14:58;41.00;;;16.88;;
41568;SDS011;27283;52.504;13.358;2023-03-20T15:17:39;46.03;;;17.23;;
41568;SDS011;27283;52.504;13.358;2023-03-20T15:20:17;39.58;;;16.33;;
41568;SDS011;27283;52.504;13.358;2023-03-20T15:22:52;41.60;;;17.58;;
41568;SDS011;27283;52.504;13.358;2023-03-20T15:25:27;41.38;;;17.48;;
41568;SDS011;27283;52.504;13.358;2023-03-20T15:28:04;41.08;;;17.20;;
41568;SDS011;27283;52.504;13.358;2023-03-20T15:30:38;40.75;;;16.88;;
41568;SDS011;27283;52.504;13.358;2023-03-20T15:33:19;41.88;;;17.20;;
41568;SDS011;27283;52.504;13.358;2023-03-20T15:35:56;45.17;;;17.33;;